sensor_id;sensor_type;location;lat;lon;timestamp;pressure;altitude;pressure_sealevel;temperature;humidity
50322;BME280;36227;53.366;-1.426;2022-07-06T00:00:24;76377.80;;;-216.84;100.00
50322;BME280;36227;53.366;-1.426;2022-07-06T00:02:51;76327.51;;;-216.84;100.00
50322;BME280;36227;53.366;-1.426;2022-07-06T00:05:18;76277.98;;;-217.06;100.00
50322;BME280;36227;53.366;-1.426;2022-07-06T00:07:45;76327.13;;;-216.84;100.00
50322;BME280;36227;53.366;-1.426;2022-07-06T00:10:13;76285.18;;;-217.77;100.00
50322;BME280;36227;53.366;-1.426;2022-07-06T00:12:39;76294.78;;;-216.84;100.00
50322;BME280;36227;53.366;-1.426;2022-07-06T00:15:07;76318.03;;;-217.06;100.00
50322;BME280;36227;53.366;-1.426;2022-07-06T00:17:34;76286.19;;;-216.84;100.00
50322;BME280;36227;53.366;-1.426;2022-07-06T00:20:01;76281.39;;;-216.84;100.00
50322;BME280;36227;53.366;-1.426;2022-07-06T00:22:28;76221.38;;;-217.28;100.00
50322;BME280;36227;53.366;-1.426;2022-07-06T00:24:55;76176.40;;;-217.06;100.00
50322;BME280;36227;53.366;-1.426;2022-07-06T00:27:22;76203.69;;;-217.06;100.00
50322;BME280;36227;53.366;-1.426;2022-07-06T00:29:49;76160.35;;;-217.77;100.00
50322;BME280;36227;53.366;-1.426;2022-07-06T00:32:16;76186.25;;;-217.28;100.00
50322;BME280;36227;53.366;-1.426;2022-07-06T00:34:43;76200.02;;;-217.06;100.00
50322;BME280;36227;53.366;-1.426;2022-07-06T00:37:10;76176.02;;;-217.28;100.00
50322;BME280;36227;53.366;-1.426;2022-07-06T00:39:37;76201.92;;;-217.06;100.00
50322;BME280;36227;53.366;-1.426;2022-07-06T00:42:04;76339.01;;;-216.84;100.00
50322;BME280;36227;53.366;-1.426;2022-07-06T00:44:31;76271.91;;;-216.84;100.00
50322;BME280;36227;53.366;-1.426;2022-07-06T00:46:59;76386.14;;;-216.84;100.00
50322;BME280;36227;53.366;-1.426;2022-07-06T00:49:26;76335.85;;;-217.28;100.00
50322;BME280;36227;53.366;-1.426;2022-07-06T00:51:53;76358.59;;;-216.84;100.00
50322;BME280;36227;53.366;-1.426;2022-07-06T00:54:20;76318.29;;;-216.84;100.00
50322;BME280;36227;53.366;-1.426;2022-07-06T00:56:46;76240.83;;;-217.06;100.00
50322;BME280;36227;53.366;-1.426;2022-07-06T00:59:13;76163.00;;;-217.55;100.00
50322;BME280;36227;53.366;-1.426;2022-07-06T01:01:41;76179.18;;;-217.77;100.00
50322;BME280;36227;53.366;-1.426;2022-07-06T01:04:08;76377.29;;;-217.28;100.00
50322;BME280;36227;53.366;-1.426;2022-07-06T01:06:35;76220.24;;;-217.55;100.00
50322;BME280;36227;53.366;-1.426;2022-07-06T01:09:04;76224.53;;;-217.77;100.00
50322;BME280;36227;53.366;-1.426;2022-07-06T01:11:31;76226.56;;;-217.77;100.00
50322;BME280;36227;53.366;-1.426;2022-07-06T01:14:00;76170.33;;;-217.77;100.00
50322;BME280;36227;53.366;-1.426;2022-07-06T01:16:27;76025.92;;;-218.04;100.00
50322;BME280;36227;53.366;-1.426;2022-07-06T01:18:55;76043.99;;;-218.04;100.00
50322;BME280;36227;53.366;-1.426;2022-07-06T01:21:22;75960.86;;;-218.04;100.00
50322;BME280;36227;53.366;-1.426;2022-07-06T01:23:50;75980.94;;;-218.26;100.00
50322;BME280;36227;53.366;-1.426;2022-07-06T01:26:19;76080.88;;;-218.26;100.00
50322;BME280;36227;53.366;-1.426;2022-07-06T01:28:47;76143.80;;;-217.77;100.00
50322;BME280;36227;53.366;-1.426;2022-07-06T01:31:15;76253.59;;;-217.28;100.00
50322;BME280;36227;53.366;-1.426;2022-07-06T01:33:44;76288.85;;;-217.06;100.00
50322;BME280;36227;53.366;-1.426;2022-07-06T01:36:11;76306.16;;;-216.84;100.00
50322;BME280;36227;53.366;-1.426;2022-07-06T01:38:48;76377.67;;;-216.57;100.00
50322;BME280;36227;53.366;-1.426;2022-07-06T01:41:16;76491.64;;;-216.84;100.00
50322;BME280;36227;53.366;-1.426;2022-07-06T01:43:44;76511.48;;;-216.84;100.00
50322;BME280;36227;53.366;-1.426;2022-07-06T01:46:11;76462.83;;;-216.84;100.00
50322;BME280;36227;53.366;-1.426;2022-07-06T01:48:39;76394.10;;;-217.06;100.00
50322;BME280;36227;53.366;-1.426;2022-07-06T01:51:06;76383.86;;;-216.84;100.00
50322;BME280;36227;53.366;-1.426;2022-07-06T01:53:33;76479.51;;;-216.35;100.00
50322;BME280;36227;53.366;-1.426;2022-07-06T01:56:00;76508.45;;;-216.35;100.00
50322;BME280;36227;53.366;-1.426;2022-07-06T01:58:27;76408.37;;;-217.06;100.00
50322;BME280;36227;53.366;-1.426;2022-07-06T02:00:54;76403.07;;;-217.28;100.00
50322;BME280;36227;53.366;-1.426;2022-07-06T02:03:21;76416.97;;;-217.06;100.00
50322;BME280;36227;53.366;-1.426;2022-07-06T02:05:48;76362.76;;;-217.06;100.00
50322;BME280;36227;53.366;-1.426;2022-07-06T02:08:15;76422.40;;;-217.06;100.00
50322;BME280;36227;53.366;-1.426;2022-07-06T02:10:42;76265.85;;;-217.28;100.00
50322;BME280;36227;53.366;-1.426;2022-07-06T02:13:08;76295.79;;;-217.06;100.00
50322;BME280;36227;53.366;-1.426;2022-07-06T02:15:35;76280.13;;;-217.06;100.00
50322;BME280;36227;53.366;-1.426;2022-07-06T02:18:03;76261.55;;;-217.28;100.00
50322;BME280;36227;53.366;-1.426;2022-07-06T02:20:30;76259.03;;;-217.55;100.00
50322;BME280;36227;53.366;-1.426;2022-07-06T02:22:57;76259.66;;;-217.28;100.00
50322;BME280;36227;53.366;-1.426;2022-07-06T02:25:24;76199.52;;;-217.55;100.00
50322;BME280;36227;53.366;-1.426;2022-07-06T02:27:50;76184.10;;;-217.28;100.00
50322;BME280;36227;53.366;-1.426;2022-07-06T02:30:18;76217.58;;;-217.06;100.00
50322;BME280;36227;53.366;-1.426;2022-07-06T02:32:45;76260.80;;;-217.06;100.00
50322;BME280;36227;53.366;-1.426;2022-07-06T02:35:13;76298.83;;;-216.84;100.00
50322;BME280;36227;53.366;-1.426;2022-07-06T02:37:40;76301.61;;;-217.55;100.00
50322;BME280;36227;53.366;-1.426;2022-07-06T02:40:09;76276.59;;;-217.28;100.00
50322;BME280;36227;53.366;-1.426;2022-07-06T02:42:36;76288.09;;;-216.84;100.00
50322;BME280;36227;53.366;-1.426;2022-07-06T02:45:05;76380.70;;;-216.84;100.00
50322;BME280;36227;53.366;-1.426;2022-07-06T02:47:32;76296.43;;;-217.28;100.00
50322;BME280;36227;53.366;-1.426;2022-07-06T02:49:59;76291.12;;;-216.84;100.00
50322;BME280;36227;53.366;-1.426;2022-07-06T02:52:26;76400.41;;;-216.57;100.00
50322;BME280;36227;53.366;-1.426;2022-07-06T02:54:53;76440.59;;;-216.35;100.00
50322;BME280;36227;53.366;-1.426;2022-07-06T02:57:21;76399.28;;;-217.28;100.00
50322;BME280;36227;53.366;-1.426;2022-07-06T02:59:48;76353.66;;;-217.28;100.00
50322;BME280;36227;53.366;-1.426;2022-07-06T03:02:14;76292.13;;;-217.06;100.00
50322;BME280;36227;53.366;-1.426;2022-07-06T03:04:41;76331.68;;;-216.84;100.00
50322;BME280;36227;53.366;-1.426;2022-07-06T03:07:09;76401.30;;;-216.57;100.00
50322;BME280;36227;53.366;-1.426;2022-07-06T03:09:36;76378.18;;;-216.84;100.00
50322;BME280;36227;53.366;-1.426;2022-07-06T03:12:04;76499.60;;;-216.57;100.00
50322;BME280;36227;53.366;-1.426;2022-07-06T03:14:32;76427.20;;;-217.55;100.00
50322;BME280;36227;53.366;-1.426;2022-07-06T03:16:59;76432.89;;;-217.06;100.00
50322;BME280;36227;53.366;-1.426;2022-07-06T03:19:26;76444.13;;;-216.84;100.00
50322;BME280;36227;53.366;-1.426;2022-07-06T03:21:53;76513.75;;;-216.84;100.00
50322;BME280;36227;53.366;-1.426;2022-07-06T03:24:20;76509.71;;;-216.35;100.00
50322;BME280;36227;53.366;-1.426;2022-07-06T03:26:46;76458.54;;;-216.84;100.00
50322;BME280;36227;53.366;-1.426;2022-07-06T03:29:13;76472.56;;;-217.06;100.00
50322;BME280;36227;53.366;-1.426;2022-07-06T03:31:40;76444.76;;;-216.84;100.00
50322;BME280;36227;53.366;-1.426;2022-07-06T03:34:07;76494.55;;;-217.28;100.00
50322;BME280;36227;53.366;-1.426;2022-07-06T03:36:35;76488.36;;;-217.28;100.00
50322;BME280;36227;53.366;-1.426;2022-07-06T03:39:02;76521.34;;;-216.84;100.00
50322;BME280;36227;53.366;-1.426;2022-07-06T03:41:29;76523.61;;;-217.06;100.00
50322;BME280;36227;53.366;-1.426;2022-07-06T03:43:55;76483.30;;;-216.84;100.00
50322;BME280;36227;53.366;-1.426;2022-07-06T03:46:22;76505.41;;;-216.35;100.00
50322;BME280;36227;53.366;-1.426;2022-07-06T03:48:49;76480.65;;;-216.84;100.00
50322;BME280;36227;53.366;-1.426;2022-07-06T03:51:16;76481.91;;;-216.84;100.00
50322;BME280;36227;53.366;-1.426;2022-07-06T03:53:43;76538.27;;;-217.06;100.00
50322;BME280;36227;53.366;-1.426;2022-07-06T03:56:11;76537.89;;;-217.28;100.00
50322;BME280;36227;53.366;-1.426;2022-07-06T03:58:37;76517.67;;;-217.28;100.00
50322;BME280;36227;53.366;-1.426;2022-07-06T04:01:04;76508.45;;;-217.06;100.00
50322;BME280;36227;53.366;-1.426;2022-07-06T04:03:31;76509.21;;;-216.84;100.00
50322;BME280;36227;53.366;-1.426;2022-07-06T04:05:58;76591.97;;;-216.35;100.00
50322;BME280;36227;53.366;-1.426;2022-07-06T04:08:25;76621.54;;;-216.35;100.00
50322;BME280;36227;53.366;-1.426;2022-07-06T04:10:52;76599.30;;;-216.35;100.00
50322;BME280;36227;53.366;-1.426;2022-07-06T04:13:19;76675.49;;;-216.84;100.00
50322;BME280;36227;53.366;-1.426;2022-07-06T04:15:47;76611.93;;;-216.84;100.00
50322;BME280;36227;53.366;-1.426;2022-07-06T04:18:14;76535.49;;;-216.84;100.00
50322;BME280;36227;53.366;-1.426;2022-07-06T04:20:41;76502.00;;;-217.28;100.00
50322;BME280;36227;53.366;-1.426;2022-07-06T04:23:08;76545.72;;;-217.06;100.00
50322;BME280;36227;53.366;-1.426;2022-07-06T04:25:35;76600.06;;;-216.84;100.00
50322;BME280;36227;53.366;-1.426;2022-07-06T04:28:03;76591.34;;;-216.57;100.00
50322;BME280;36227;53.366;-1.426;2022-07-06T04:30:30;76561.14;;;-216.57;100.00
50322;BME280;36227;53.366;-1.426;2022-07-06T04:32:58;76598.41;;;-217.28;100.00
50322;BME280;36227;53.366;-1.426;2022-07-06T04:35:25;76580.85;;;-216.84;100.00
50322;BME280;36227;53.366;-1.426;2022-07-06T04:37:52;76603.09;;;-216.57;100.00
50322;BME280;36227;53.366;-1.426;2022-07-06T04:40:19;76590.58;;;-216.35;100.00
50322;BME280;36227;53.366;-1.426;2022-07-06T04:42:46;76589.95;;;-216.84;100.00
50322;BME280;36227;53.366;-1.426;2022-07-06T04:45:13;76584.26;;;-216.84;100.00
50322;BME280;36227;53.366;-1.426;2022-07-06T04:47:40;76528.66;;;-216.84;100.00
50322;BME280;36227;53.366;-1.426;2022-07-06T04:50:08;76526.26;;;-217.06;100.00
50322;BME280;36227;53.366;-1.426;2022-07-06T04:52:35;76589.95;;;-217.06;100.00
50322;BME280;36227;53.366;-1.426;2022-07-06T04:55:03;76604.73;;;-216.84;100.00
50322;BME280;36227;53.366;-1.426;2022-07-06T04:57:30;76650.22;;;-216.35;100.00
50322;BME280;36227;53.366;-1.426;2022-07-06T04:59:57;76602.84;;;-216.84;100.00
50322;BME280;36227;53.366;-1.426;2022-07-06T05:02:25;76644.41;;;-216.84;100.00
50322;BME280;36227;53.366;-1.426;2022-07-06T05:04:53;76667.28;;;-216.35;100.00
50322;BME280;36227;53.366;-1.426;2022-07-06T05:07:20;76590.58;;;-216.57;100.00
50322;BME280;36227;53.366;-1.426;2022-07-06T05:09:47;76609.91;;;-216.84;100.00
50322;BME280;36227;53.366;-1.426;2022-07-06T05:12:15;76619.14;;;-216.84;100.00
50322;BME280;36227;53.366;-1.426;2022-07-06T05:14:42;76608.40;;;-216.35;100.00
50322;BME280;36227;53.366;-1.426;2022-07-06T05:17:09;76571.12;;;-216.84;100.00
50322;BME280;36227;53.366;-1.426;2022-07-06T05:19:36;76546.73;;;-216.35;100.00
50322;BME280;36227;53.366;-1.426;2022-07-06T05:22:03;76607.39;;;-216.13;100.00
50322;BME280;36227;53.366;-1.426;2022-07-06T05:24:30;76573.02;;;-216.35;100.00
50322;BME280;36227;53.366;-1.426;2022-07-06T05:26:57;76538.52;;;-216.84;100.00
50322;BME280;36227;53.366;-1.426;2022-07-06T05:29:24;76535.11;;;-217.06;100.00
50322;BME280;36227;53.366;-1.426;2022-07-06T05:31:51;76592.60;;;-216.35;100.00
50322;BME280;36227;53.366;-1.426;2022-07-06T05:34:18;76608.40;;;-216.35;100.00
50322;BME280;36227;53.366;-1.426;2022-07-06T05:36:45;76601.07;;;-216.35;100.00
50322;BME280;36227;53.366;-1.426;2022-07-06T05:39:12;76588.18;;;-216.35;100.00
50322;BME280;36227;53.366;-1.426;2022-07-06T05:41:39;76537.13;;;-216.57;100.00
50322;BME280;36227;53.366;-1.426;2022-07-06T05:44:05;76562.78;;;-216.35;100.00
50322;BME280;36227;53.366;-1.426;2022-07-06T05:46:33;76532.33;;;-217.28;100.00
50322;BME280;36227;53.366;-1.426;2022-07-06T05:48:59;76583.38;;;-217.06;100.00
50322;BME280;36227;53.366;-1.426;2022-07-06T05:51:26;76597.78;;;-216.57;100.00
50322;BME280;36227;53.366;-1.426;2022-07-06T05:53:53;76533.34;;;-216.84;100.00
50322;BME280;36227;53.366;-1.426;2022-07-06T05:56:20;76553.30;;;-216.57;100.00
50322;BME280;36227;53.366;-1.426;2022-07-06T05:58:47;76558.23;;;-216.35;100.00
50322;BME280;36227;53.366;-1.426;2022-07-06T06:01:14;76596.90;;;-216.35;100.00
50322;BME280;36227;53.366;-1.426;2022-07-06T06:03:41;76563.41;;;-216.35;100.00
50322;BME280;36227;53.366;-1.426;2022-07-06T06:06:08;76564.68;;;-216.57;100.00
50322;BME280;36227;53.366;-1.426;2022-07-06T06:08:35;76535.87;;;-216.84;100.00
50322;BME280;36227;53.366;-1.426;2022-07-06T06:11:02;76457.15;;;-216.84;100.00
50322;BME280;36227;53.366;-1.426;2022-07-06T06:13:29;76506.93;;;-216.57;100.00
50322;BME280;36227;53.366;-1.426;2022-07-06T06:15:56;76551.28;;;-216.35;100.00
50322;BME280;36227;53.366;-1.426;2022-07-06T06:18:23;76561.90;;;-216.35;100.00
50322;BME280;36227;53.366;-1.426;2022-07-06T06:20:50;76539.66;;;-216.35;100.00
50322;BME280;36227;53.366;-1.426;2022-07-06T06:23:17;76585.40;;;-215.86;100.00
50322;BME280;36227;53.366;-1.426;2022-07-06T06:25:44;76547.74;;;-216.84;100.00
50322;BME280;36227;53.366;-1.426;2022-07-06T06:28:11;76542.69;;;-216.84;100.00
50322;BME280;36227;53.366;-1.426;2022-07-06T06:30:39;76464.35;;;-216.84;100.00
50322;BME280;36227;53.366;-1.426;2022-07-06T06:33:07;76488.48;;;-216.84;100.00
50322;BME280;36227;53.366;-1.426;2022-07-06T06:35:35;76490.38;;;-216.84;100.00
50322;BME280;36227;53.366;-1.426;2022-07-06T06:38:02;76414.69;;;-216.84;100.00
50322;BME280;36227;53.366;-1.426;2022-07-06T06:40:30;76434.40;;;-216.84;100.00
50322;BME280;36227;53.366;-1.426;2022-07-06T06:42:57;76361.12;;;-217.28;100.00
50322;BME280;36227;53.366;-1.426;2022-07-06T06:45:24;76379.57;;;-218.26;100.00
50322;BME280;36227;53.366;-1.426;2022-07-06T06:47:52;76277.98;;;-217.77;100.00
50322;BME280;36227;53.366;-1.426;2022-07-06T06:50:19;76357.33;;;-217.28;100.00
50322;BME280;36227;53.366;-1.426;2022-07-06T06:52:46;76489.49;;;-217.06;100.00
50322;BME280;36227;53.366;-1.426;2022-07-06T06:55:13;76362.38;;;-217.28;100.00
50322;BME280;36227;53.366;-1.426;2022-07-06T06:57:40;76241.09;;;-217.77;100.00
50322;BME280;36227;53.366;-1.426;2022-07-06T07:00:08;76380.45;;;-217.06;100.00
50322;BME280;36227;53.366;-1.426;2022-07-06T07:02:36;76366.68;;;-217.55;100.00
50322;BME280;36227;53.366;-1.426;2022-07-06T07:05:03;76375.02;;;-217.77;100.00
50322;BME280;36227;53.366;-1.426;2022-07-06T07:07:30;76469.02;;;-216.84;100.00
50322;BME280;36227;53.366;-1.426;2022-07-06T07:09:58;76465.11;;;-216.84;100.00
50322;BME280;36227;53.366;-1.426;2022-07-06T07:12:24;76513.00;;;-216.57;100.00
50322;BME280;36227;53.366;-1.426;2022-07-06T07:14:51;76535.11;;;-216.35;100.00
50322;BME280;36227;53.366;-1.426;2022-07-06T07:17:18;76480.90;;;-216.84;100.00
50322;BME280;36227;53.366;-1.426;2022-07-06T07:19:45;76457.53;;;-216.84;100.00
50322;BME280;36227;53.366;-1.426;2022-07-06T07:22:12;76419.11;;;-217.28;100.00
50322;BME280;36227;53.366;-1.426;2022-07-06T07:24:40;76478.50;;;-217.06;100.00
50322;BME280;36227;53.366;-1.426;2022-07-06T07:27:07;76478.50;;;-216.84;100.00
50322;BME280;36227;53.366;-1.426;2022-07-06T07:29:33;76450.07;;;-216.84;100.00
50322;BME280;36227;53.366;-1.426;2022-07-06T07:32:00;76447.04;;;-216.57;100.00
50322;BME280;36227;53.366;-1.426;2022-07-06T07:34:27;76432.63;;;-216.84;100.00
50322;BME280;36227;53.366;-1.426;2022-07-06T07:36:54;76398.14;;;-216.84;100.00
50322;BME280;36227;53.366;-1.426;2022-07-06T07:39:21;76353.28;;;-217.28;100.00
50322;BME280;36227;53.366;-1.426;2022-07-06T07:41:48;76329.02;;;-217.28;100.00
50322;BME280;36227;53.366;-1.426;2022-07-06T07:44:15;76400.92;;;-217.28;100.00
50322;BME280;36227;53.366;-1.426;2022-07-06T07:46:42;76424.04;;;-216.84;100.00
50322;BME280;36227;53.366;-1.426;2022-07-06T07:49:09;76403.57;;;-216.84;100.00
50322;BME280;36227;53.366;-1.426;2022-07-06T07:51:36;76385.25;;;-216.84;100.00
50322;BME280;36227;53.366;-1.426;2022-07-06T07:54:03;76389.93;;;-216.84;100.00
50322;BME280;36227;53.366;-1.426;2022-07-06T07:56:31;76378.55;;;-216.84;100.00
50322;BME280;36227;53.366;-1.426;2022-07-06T07:58:57;76365.16;;;-216.84;100.00
50322;BME280;36227;53.366;-1.426;2022-07-06T08:01:25;76365.16;;;-217.28;100.00
50322;BME280;36227;53.366;-1.426;2022-07-06T08:03:52;76297.18;;;-217.28;100.00
50322;BME280;36227;53.366;-1.426;2022-07-06T08:06:19;76353.54;;;-216.84;100.00
50322;BME280;36227;53.366;-1.426;2022-07-06T08:08:46;76348.36;;;-216.57;100.00
50322;BME280;36227;53.366;-1.426;2022-07-06T08:11:12;76378.05;;;-216.84;100.00
50322;BME280;36227;53.366;-1.426;2022-07-06T08:13:39;76341.15;;;-216.84;100.00
50322;BME280;36227;53.366;-1.426;2022-07-06T08:16:06;76272.29;;;-217.28;100.00
50322;BME280;36227;53.366;-1.426;2022-07-06T08:18:34;76226.93;;;-217.28;100.00
50322;BME280;36227;53.366;-1.426;2022-07-06T08:21:01;76204.19;;;-218.04;100.00
50322;BME280;36227;53.366;-1.426;2022-07-06T08:23:29;76232.87;;;-217.28;100.00
50322;BME280;36227;53.366;-1.426;2022-07-06T08:25:56;76250.56;;;-217.28;100.00
50322;BME280;36227;53.366;-1.426;2022-07-06T08:28:23;76242.22;;;-217.28;100.00
50322;BME280;36227;53.366;-1.426;2022-07-06T08:30:50;76312.73;;;-217.28;100.00
50322;BME280;36227;53.366;-1.426;2022-07-06T08:33:17;76231.86;;;-217.55;100.00
50322;BME280;36227;53.366;-1.426;2022-07-06T08:35:43;76266.99;;;-217.28;100.00
50322;BME280;36227;53.366;-1.426;2022-07-06T08:38:10;76215.69;;;-217.06;100.00
50322;BME280;36227;53.366;-1.426;2022-07-06T08:40:39;76156.94;;;-218.04;100.00
50322;BME280;36227;53.366;-1.426;2022-07-06T08:43:07;76188.15;;;-217.77;100.00
50322;BME280;36227;53.366;-1.426;2022-07-06T08:45:34;76258.14;;;-217.06;100.00
50322;BME280;36227;53.366;-1.426;2022-07-06T08:48:06;76221.25;;;-217.28;100.00
50322;BME280;36227;53.366;-1.426;2022-07-06T08:50:34;76318.54;;;-217.06;100.00
50322;BME280;36227;53.366;-1.426;2022-07-06T08:53:01;76276.97;;;-217.06;100.00
50322;BME280;36227;53.366;-1.426;2022-07-06T08:55:29;76380.96;;;-217.06;100.00
50322;BME280;36227;53.366;-1.426;2022-07-06T08:57:57;76239.70;;;-218.04;100.00
50322;BME280;36227;53.366;-1.426;2022-07-06T09:00:24;76254.60;;;-217.55;100.00
50322;BME280;36227;53.366;-1.426;2022-07-06T09:02:52;76221.63;;;-217.28;100.00
50322;BME280;36227;53.366;-1.426;2022-07-06T09:05:22;76258.90;;;-216.84;100.00
50322;BME280;36227;53.366;-1.426;2022-07-06T09:07:50;76209.25;;;-217.28;100.00
50322;BME280;36227;53.366;-1.426;2022-07-06T09:10:18;76116.26;;;-217.55;100.00
50322;BME280;36227;53.366;-1.426;2022-07-06T09:12:45;76174.88;;;-217.55;100.00
50322;BME280;36227;53.366;-1.426;2022-07-06T09:15:12;76175.76;;;-217.77;100.00
50322;BME280;36227;53.366;-1.426;2022-07-06T09:17:41;76202.80;;;-217.28;100.00
50322;BME280;36227;53.366;-1.426;2022-07-06T09:20:09;76123.33;;;-217.77;100.00
50322;BME280;36227;53.366;-1.426;2022-07-06T09:22:37;76008.99;;;-218.04;100.00
50322;BME280;36227;53.366;-1.426;2022-07-06T09:25:07;76086.69;;;-217.77;100.00
50322;BME280;36227;53.366;-1.426;2022-07-06T09:27:37;76067.99;;;-217.77;100.00
50322;BME280;36227;53.366;-1.426;2022-07-06T09:30:06;76211.14;;;-217.28;100.00
50322;BME280;36227;53.366;-1.426;2022-07-06T09:32:38;76273.05;;;-217.77;100.00
50322;BME280;36227;53.366;-1.426;2022-07-06T09:35:06;76352.02;;;-217.28;100.00
50322;BME280;36227;53.366;-1.426;2022-07-06T09:37:34;76312.47;;;-217.28;100.00
50322;BME280;36227;53.366;-1.426;2022-07-06T09:40:03;76176.27;;;-217.77;100.00
50322;BME280;36227;53.366;-1.426;2022-07-06T09:42:42;76102.36;;;-217.55;100.00
50322;BME280;36227;53.366;-1.426;2022-07-06T09:45:09;76213.67;;;-217.77;100.00
50322;BME280;36227;53.366;-1.426;2022-07-06T09:47:36;76260.16;;;-217.55;100.00
50322;BME280;36227;53.366;-1.426;2022-07-06T09:50:06;76246.39;;;-217.28;100.00
50322;BME280;36227;53.366;-1.426;2022-07-06T09:52:34;76150.49;;;-217.55;100.00
50322;BME280;36227;53.366;-1.426;2022-07-06T09:55:06;76194.97;;;-217.06;100.00
50322;BME280;36227;53.366;-1.426;2022-07-06T09:57:52;76146.70;;;-217.28;100.00
50322;BME280;36227;53.366;-1.426;2022-07-06T10:00:19;76067.74;;;-217.77;100.00
50322;BME280;36227;53.366;-1.426;2022-07-06T10:02:47;76029.46;;;-217.77;100.00
50322;BME280;36227;53.366;-1.426;2022-07-06T10:05:16;76086.69;;;-217.55;100.00
50322;BME280;36227;53.366;-1.426;2022-07-06T10:07:44;76116.26;;;-217.28;100.00
50322;BME280;36227;53.366;-1.426;2022-07-06T10:10:12;76127.37;;;-217.28;100.00
50322;BME280;36227;53.366;-1.426;2022-07-06T10:12:42;76085.81;;;-217.55;100.00
50322;BME280;36227;53.366;-1.426;2022-07-06T10:15:11;76185.37;;;-218.04;100.00
50322;BME280;36227;53.366;-1.426;2022-07-06T10:17:39;76060.41;;;-218.04;100.00
50322;BME280;36227;53.366;-1.426;2022-07-06T10:20:08;76100.34;;;-217.77;100.00
50322;BME280;36227;53.366;-1.426;2022-07-06T10:22:36;76096.80;;;-217.55;100.00
50322;BME280;36227;53.366;-1.426;2022-07-06T10:25:04;76224.15;;;-217.06;100.00
50322;BME280;36227;53.366;-1.426;2022-07-06T10:27:32;76177.15;;;-217.28;100.00
50322;BME280;36227;53.366;-1.426;2022-07-06T10:30:02;76190.17;;;-217.77;100.00
50322;BME280;36227;53.366;-1.426;2022-07-06T10:32:29;76190.80;;;-217.77;100.00
50322;BME280;36227;53.366;-1.426;2022-07-06T10:34:56;76099.33;;;-218.04;100.00
50322;BME280;36227;53.366;-1.426;2022-07-06T10:37:24;76306.79;;;-217.28;100.00
50322;BME280;36227;53.366;-1.426;2022-07-06T10:39:51;76297.31;;;-217.06;100.00
50322;BME280;36227;53.366;-1.426;2022-07-06T10:42:57;76307.17;;;-217.28;100.00
50322;BME280;36227;53.366;-1.426;2022-07-06T10:45:56;76136.34;;;-217.77;100.00
50322;BME280;36227;53.366;-1.426;2022-07-06T10:48:24;76121.44;;;-217.55;100.00
50322;BME280;36227;53.366;-1.426;2022-07-06T10:50:53;76051.44;;;-218.26;100.00
50322;BME280;36227;53.366;-1.426;2022-07-06T10:53:25;76032.62;;;-217.77;100.00
50322;BME280;36227;53.366;-1.426;2022-07-06T10:55:53;75988.27;;;-217.77;100.00
50322;BME280;36227;53.366;-1.426;2022-07-06T10:58:38;75870.40;;;-218.04;100.00
50322;BME280;36227;53.366;-1.426;2022-07-06T11:01:06;76070.39;;;-217.77;100.00
50322;BME280;36227;53.366;-1.426;2022-07-06T11:03:37;76061.17;;;-217.77;100.00
50322;BME280;36227;53.366;-1.426;2022-07-06T11:06:08;76057.88;;;-217.77;100.00
50322;BME280;36227;53.366;-1.426;2022-07-06T11:08:45;76005.58;;;-217.77;100.00
50322;BME280;36227;53.366;-1.426;2022-07-06T11:11:14;75983.85;;;-217.28;100.00
50322;BME280;36227;53.366;-1.426;2022-07-06T11:13:48;76069.76;;;-217.28;100.00
50322;BME280;36227;53.366;-1.426;2022-07-06T11:16:15;76135.08;;;-217.77;100.00
50322;BME280;36227;53.366;-1.426;2022-07-06T11:18:47;76065.47;;;-217.77;100.00
50322;BME280;36227;53.366;-1.426;2022-07-06T11:21:16;76047.65;;;-217.77;100.00
50322;BME280;36227;53.366;-1.426;2022-07-06T11:23:46;75962.24;;;-217.28;100.00
50322;BME280;36227;53.366;-1.426;2022-07-06T11:26:14;76023.01;;;-217.28;100.00
50322;BME280;36227;53.366;-1.426;2022-07-06T11:28:41;76032.24;;;-217.28;100.00
50322;BME280;36227;53.366;-1.426;2022-07-06T11:31:10;76036.79;;;-217.77;100.00
50322;BME280;36227;53.366;-1.426;2022-07-06T11:33:37;76149.48;;;-217.28;100.00
50322;BME280;36227;53.366;-1.426;2022-07-06T11:36:16;76045.63;;;-217.28;100.00
50322;BME280;36227;53.366;-1.426;2022-07-06T11:38:45;75988.40;;;-217.28;100.00
50322;BME280;36227;53.366;-1.426;2022-07-06T11:41:13;75978.29;;;-217.28;100.00
50322;BME280;36227;53.366;-1.426;2022-07-06T11:43:42;75993.32;;;-217.55;100.00
50322;BME280;36227;53.366;-1.426;2022-07-06T11:46:26;75894.65;;;-218.48;100.00
50322;BME280;36227;53.366;-1.426;2022-07-06T11:48:55;75883.16;;;-218.04;100.00
50322;BME280;36227;53.366;-1.426;2022-07-06T11:51:24;75963.26;;;-217.77;100.00
50322;BME280;36227;53.366;-1.426;2022-07-06T11:53:54;75952.26;;;-217.77;100.00
50322;BME280;36227;53.366;-1.426;2022-07-06T11:56:22;75911.96;;;-217.55;100.00
50322;BME280;36227;53.366;-1.426;2022-07-06T11:58:50;75945.19;;;-218.04;100.00
50322;BME280;36227;53.366;-1.426;2022-07-06T12:01:18;75976.52;;;-217.77;100.00
50322;BME280;36227;53.366;-1.426;2022-07-06T12:03:45;75922.57;;;-217.77;100.00
50322;BME280;36227;53.366;-1.426;2022-07-06T12:06:14;75879.62;;;-217.77;100.00
50322;BME280;36227;53.366;-1.426;2022-07-06T12:08:44;75829.84;;;-217.77;100.00
50322;BME280;36227;53.366;-1.426;2022-07-06T12:11:19;76055.86;;;-217.28;100.00
50322;BME280;36227;53.366;-1.426;2022-07-06T12:13:48;75936.09;;;-218.26;100.00
50322;BME280;36227;53.366;-1.426;2022-07-06T12:16:16;75991.18;;;-217.28;100.00
50322;BME280;36227;53.366;-1.426;2022-07-06T12:18:45;75984.48;;;-217.55;100.00
50322;BME280;36227;53.366;-1.426;2022-07-06T12:21:15;76072.79;;;-217.06;100.00
50322;BME280;36227;53.366;-1.426;2022-07-06T12:23:43;76063.44;;;-216.84;100.00